sensor_id;sensor_type;location;lat;lon;timestamp;P1;durP1;ratioP1;P2;durP2;ratioP2
11984;SDS011;6052;53.246;10.368;2024-01-15T00:00:03;5.47;;;1.80;;
11984;SDS011;6052;53.246;10.368;2024-01-15T00:02:34;4.80;;;1.30;;
11984;SDS011;6052;53.246;10.368;2024-01-15T00:05:06;1.40;;;1.30;;
11984;SDS011;6052;53.246;10.368;2024-01-15T00:07:36;4.63;;;1.90;;
11984;SDS011;6052;53.246;10.368;2024-01-15T00:10:06;4.33;;;1.23;;
11984;SDS011;6052;53.246;10.368;2024-01-15T00:12:36;3.20;;;1.57;;
11984;SDS011;6052;53.246;10.368;2024-01-15T00:15:06;2.80;;;1.30;;
11984;SDS011;6052;53.246;10.368;2024-01-15T00:17:36;8.33;;;2.07;;
11984;SDS011;6052;53.246;10.368;2024-01-15T00:20:09;2.63;;;1.60;;
11984;SDS011;6052;53.246;10.368;2024-01-15T00:22:39;12.30;;;2.17;;
11984;SDS011;6052;53.246;10.368;2024-01-15T00:25:09;4.90;;;1.57;;
11984;SDS011;6052;53.246;10.368;2024-01-15T00:27:38;2.83;;;1.37;;
11984;SDS011;6052;53.246;10.368;2024-01-15T00:30:09;4.50;;;1.43;;
11984;SDS011;6052;53.246;10.368;2024-01-15T00:32:39;5.57;;;1.30;;
11984;SDS011;6052;53.246;10.368;2024-01-15T00:35:12;5.30;;;1.60;;
11984;SDS011;6052;53.246;10.368;2024-01-15T00:37:42;7.37;;;1.77;;
11984;SDS011;6052;53.246;10.368;2024-01-15T00:40:11;4.83;;;1.67;;
11984;SDS011;6052;53.246;10.368;2024-01-15T00:42:41;4.63;;;1.47;;
11984;SDS011;6052;53.246;10.368;2024-01-15T00:45:11;3.10;;;1.60;;
11984;SDS011;6052;53.246;10.368;2024-01-15T00:47:41;6.40;;;1.90;;
11984;SDS011;6052;53.246;10.368;2024-01-15T00:50:13;7.50;;;1.93;;
11984;SDS011;6052;53.246;10.368;2024-01-15T00:52:43;2.17;;;1.23;;
11984;SDS011;6052;53.246;10.368;2024-01-15T00:55:13;3.23;;;1.30;;
11984;SDS011;6052;53.246;10.368;2024-01-15T00:57:43;2.77;;;1.33;;
11984;SDS011;6052;53.246;10.368;2024-01-15T01:00:13;2.73;;;1.00;;
11984;SDS011;6052;53.246;10.368;2024-01-15T01:02:43;3.73;;;1.20;;
11984;SDS011;6052;53.246;10.368;2024-01-15T01:05:16;3.97;;;1.63;;
11984;SDS011;6052;53.246;10.368;2024-01-15T01:07:45;2.57;;;1.20;;
11984;SDS011;6052;53.246;10.368;2024-01-15T01:10:15;6.53;;;1.47;;
11984;SDS011;6052;53.246;10.368;2024-01-15T01:12:45;3.33;;;1.43;;
11984;SDS011;6052;53.246;10.368;2024-01-15T01:15:14;3.27;;;0.87;;
11984;SDS011;6052;53.246;10.368;2024-01-15T01:17:44;3.23;;;1.00;;
11984;SDS011;6052;53.246;10.368;2024-01-15T01:20:17;2.70;;;1.10;;
11984;SDS011;6052;53.246;10.368;2024-01-15T01:22:47;4.87;;;0.97;;
11984;SDS011;6052;53.246;10.368;2024-01-15T01:25:16;6.13;;;1.70;;
11984;SDS011;6052;53.246;10.368;2024-01-15T01:27:46;3.10;;;1.50;;
11984;SDS011;6052;53.246;10.368;2024-01-15T01:30:16;3.80;;;1.40;;
11984;SDS011;6052;53.246;10.368;2024-01-15T01:32:46;7.67;;;1.10;;
11984;SDS011;6052;53.246;10.368;2024-01-15T01:35:18;4.47;;;1.47;;
11984;SDS011;6052;53.246;10.368;2024-01-15T01:37:47;2.03;;;0.90;;
11984;SDS011;6052;53.246;10.368;2024-01-15T01:40:17;4.80;;;1.30;;
11984;SDS011;6052;53.246;10.368;2024-01-15T01:42:47;2.07;;;0.97;;
11984;SDS011;6052;53.246;10.368;2024-01-15T01:45:17;3.83;;;1.10;;
11984;SDS011;6052;53.246;10.368;2024-01-15T01:47:46;3.37;;;1.23;;
11984;SDS011;6052;53.246;10.368;2024-01-15T01:50:19;3.27;;;1.10;;
11984;SDS011;6052;53.246;10.368;2024-01-15T01:52:49;8.60;;;1.10;;
11984;SDS011;6052;53.246;10.368;2024-01-15T01:55:20;8.80;;;1.63;;
11984;SDS011;6052;53.246;10.368;2024-01-15T01:57:51;2.30;;;1.07;;
11984;SDS011;6052;53.246;10.368;2024-01-15T02:00:20;4.87;;;1.50;;
11984;SDS011;6052;53.246;10.368;2024-01-15T02:02:50;5.80;;;1.70;;
11984;SDS011;6052;53.246;10.368;2024-01-15T02:05:23;4.63;;;1.10;;
11984;SDS011;6052;53.246;10.368;2024-01-15T02:07:52;2.10;;;1.10;;
11984;SDS011;6052;53.246;10.368;2024-01-15T02:10:22;7.03;;;1.57;;
11984;SDS011;6052;53.246;10.368;2024-01-15T02:12:52;9.30;;;1.77;;
11984;SDS011;6052;53.246;10.368;2024-01-15T02:15:21;2.63;;;1.40;;
11984;SDS011;6052;53.246;10.368;2024-01-15T02:18:00;4.13;;;1.10;;
11984;SDS011;6052;53.246;10.368;2024-01-15T02:20:34;4.50;;;1.20;;
11984;SDS011;6052;53.246;10.368;2024-01-15T02:23:10;1.27;;;1.00;;
11984;SDS011;6052;53.246;10.368;2024-01-15T02:25:41;3.20;;;1.27;;
11984;SDS011;6052;53.246;10.368;2024-01-15T02:28:12;4.80;;;1.43;;
11984;SDS011;6052;53.246;10.368;2024-01-15T02:30:43;1.50;;;0.93;;
11984;SDS011;6052;53.246;10.368;2024-01-15T02:33:13;0.80;;;0.80;;
11984;SDS011;6052;53.246;10.368;2024-01-15T02:35:43;3.50;;;1.07;;
11984;SDS011;6052;53.246;10.368;2024-01-15T02:38:16;3.20;;;1.47;;
11984;SDS011;6052;53.246;10.368;2024-01-15T02:40:46;1.77;;;1.10;;
11984;SDS011;6052;53.246;10.368;2024-01-15T02:43:16;1.53;;;1.43;;
11984;SDS011;6052;53.246;10.368;2024-01-15T02:45:46;1.73;;;1.20;;
11984;SDS011;6052;53.246;10.368;2024-01-15T02:48:15;2.17;;;1.47;;
11984;SDS011;6052;53.246;10.368;2024-01-15T02:50:45;1.73;;;1.30;;
11984;SDS011;6052;53.246;10.368;2024-01-15T02:53:17;5.13;;;1.90;;
11984;SDS011;6052;53.246;10.368;2024-01-15T02:55:47;2.90;;;1.33;;
11984;SDS011;6052;53.246;10.368;2024-01-15T02:58:16;2.50;;;1.20;;
11984;SDS011;6052;53.246;10.368;2024-01-15T03:00:46;1.83;;;1.37;;
11984;SDS011;6052;53.246;10.368;2024-01-15T03:03:16;3.90;;;1.63;;
11984;SDS011;6052;53.246;10.368;2024-01-15T03:05:45;5.43;;;1.80;;
11984;SDS011;6052;53.246;10.368;2024-01-15T03:08:17;3.93;;;1.70;;
11984;SDS011;6052;53.246;10.368;2024-01-15T03:10:49;3.40;;;1.50;;
11984;SDS011;6052;53.246;10.368;2024-01-15T03:13:19;3.90;;;1.50;;
11984;SDS011;6052;53.246;10.368;2024-01-15T03:15:48;5.13;;;1.90;;
11984;SDS011;6052;53.246;10.368;2024-01-15T03:18:18;6.70;;;1.47;;
11984;SDS011;6052;53.246;10.368;2024-01-15T03:20:48;6.47;;;1.70;;
11984;SDS011;6052;53.246;10.368;2024-01-15T03:23:20;1.93;;;1.40;;
11984;SDS011;6052;53.246;10.368;2024-01-15T03:25:50;2.17;;;1.50;;
11984;SDS011;6052;53.246;10.368;2024-01-15T03:28:19;4.90;;;1.77;;
11984;SDS011;6052;53.246;10.368;2024-01-15T03:30:49;2.53;;;1.30;;
11984;SDS011;6052;53.246;10.368;2024-01-15T03:33:19;2.20;;;1.37;;
11984;SDS011;6052;53.246;10.368;2024-01-15T03:35:48;1.03;;;0.93;;
11984;SDS011;6052;53.246;10.368;2024-01-15T03:38:23;2.97;;;1.40;;
11984;SDS011;6052;53.246;10.368;2024-01-15T03:40:53;5.33;;;1.50;;
11984;SDS011;6052;53.246;10.368;2024-01-15T03:43:22;2.70;;;1.40;;
11984;SDS011;6052;53.246;10.368;2024-01-15T03:45:52;4.97;;;1.30;;
11984;SDS011;6052;53.246;10.368;2024-01-15T03:48:22;4.63;;;1.43;;
11984;SDS011;6052;53.246;10.368;2024-01-15T03:50:51;3.37;;;1.30;;
11984;SDS011;6052;53.246;10.368;2024-01-15T03:53:23;4.80;;;2.03;;
11984;SDS011;6052;53.246;10.368;2024-01-15T03:55:53;2.57;;;1.23;;
11984;SDS011;6052;53.246;10.368;2024-01-15T03:58:22;2.30;;;1.00;;
11984;SDS011;6052;53.246;10.368;2024-01-15T04:00:52;3.23;;;1.23;;
11984;SDS011;6052;53.246;10.368;2024-01-15T04:03:22;4.83;;;1.20;;
11984;SDS011;6052;53.246;10.368;2024-01-15T04:05:51;5.33;;;1.33;;
11984;SDS011;6052;53.246;10.368;2024-01-15T04:08:23;3.60;;;1.47;;
11984;SDS011;6052;53.246;10.368;2024-01-15T04:10:53;3.10;;;1.30;;
11984;SDS011;6052;53.246;10.368;2024-01-15T04:13:22;5.03;;;1.53;;
11984;SDS011;6052;53.246;10.368;2024-01-15T04:15:52;2.73;;;1.20;;
11984;SDS011;6052;53.246;10.368;2024-01-15T04:18:22;7.17;;;1.43;;
11984;SDS011;6052;53.246;10.368;2024-01-15T04:20:52;5.43;;;1.50;;
11984;SDS011;6052;53.246;10.368;2024-01-15T04:23:24;8.17;;;1.60;;
11984;SDS011;6052;53.246;10.368;2024-01-15T04:25:54;5.37;;;1.30;;
11984;SDS011;6052;53.246;10.368;2024-01-15T04:28:23;4.73;;;1.30;;
11984;SDS011;6052;53.246;10.368;2024-01-15T04:30:53;2.83;;;1.57;;
11984;SDS011;6052;53.246;10.368;2024-01-15T04:33:22;4.03;;;1.30;;
11984;SDS011;6052;53.246;10.368;2024-01-15T04:35:52;6.53;;;1.47;;
11984;SDS011;6052;53.246;10.368;2024-01-15T04:38:24;6.37;;;1.40;;
11984;SDS011;6052;53.246;10.368;2024-01-15T04:40:54;4.57;;;1.83;;
11984;SDS011;6052;53.246;10.368;2024-01-15T04:43:24;6.53;;;1.90;;
11984;SDS011;6052;53.246;10.368;2024-01-15T04:45:53;7.17;;;1.50;;
11984;SDS011;6052;53.246;10.368;2024-01-15T04:48:23;8.47;;;1.40;;
11984;SDS011;6052;53.246;10.368;2024-01-15T04:50:52;7.80;;;1.47;;
11984;SDS011;6052;53.246;10.368;2024-01-15T04:53:25;7.30;;;2.23;;
11984;SDS011;6052;53.246;10.368;2024-01-15T04:55:54;3.53;;;1.90;;
11984;SDS011;6052;53.246;10.368;2024-01-15T04:58:24;4.03;;;1.83;;
11984;SDS011;6052;53.246;10.368;2024-01-15T05:00:54;5.60;;;1.47;;
11984;SDS011;6052;53.246;10.368;2024-01-15T05:03:23;4.77;;;1.93;;
11984;SDS011;6052;53.246;10.368;2024-01-15T05:05:53;4.53;;;1.70;;
11984;SDS011;6052;53.246;10.368;2024-01-15T05:08:26;5.77;;;1.40;;
11984;SDS011;6052;53.246;10.368;2024-01-15T05:10:56;6.03;;;1.63;;
11984;SDS011;6052;53.246;10.368;2024-01-15T05:13:25;5.53;;;1.83;;
11984;SDS011;6052;53.246;10.368;2024-01-15T05:15:55;3.63;;;1.33;;
11984;SDS011;6052;53.246;10.368;2024-01-15T05:18:24;6.03;;;2.60;;
11984;SDS011;6052;53.246;10.368;2024-01-15T05:20:54;6.37;;;1.50;;
11984;SDS011;6052;53.246;10.368;2024-01-15T05:23:26;4.87;;;1.63;;
11984;SDS011;6052;53.246;10.368;2024-01-15T05:25:56;6.00;;;2.10;;
11984;SDS011;6052;53.246;10.368;2024-01-15T05:28:26;9.03;;;2.00;;
11984;SDS011;6052;53.246;10.368;2024-01-15T05:30:55;5.37;;;2.27;;
11984;SDS011;6052;53.246;10.368;2024-01-15T05:33:25;10.77;;;1.93;;
11984;SDS011;6052;53.246;10.368;2024-01-15T05:35:55;6.60;;;2.17;;
11984;SDS011;6052;53.246;10.368;2024-01-15T05:38:28;5.07;;;1.97;;
11984;SDS011;6052;53.246;10.368;2024-01-15T05:40:57;8.97;;;2.10;;
11984;SDS011;6052;53.246;10.368;2024-01-15T05:43:27;9.83;;;2.00;;
11984;SDS011;6052;53.246;10.368;2024-01-15T05:45:56;10.17;;;2.73;;
11984;SDS011;6052;53.246;10.368;2024-01-15T05:48:26;8.87;;;2.13;;
11984;SDS011;6052;53.246;10.368;2024-01-15T05:50:56;3.73;;;2.00;;
11984;SDS011;6052;53.246;10.368;2024-01-15T05:53:28;8.83;;;1.80;;
11984;SDS011;6052;53.246;10.368;2024-01-15T05:55:57;8.27;;;3.00;;
11984;SDS011;6052;53.246;10.368;2024-01-15T05:58:27;7.70;;;1.60;;
11984;SDS011;6052;53.246;10.368;2024-01-15T06:00:57;8.43;;;2.30;;
11984;SDS011;6052;53.246;10.368;2024-01-15T06:03:27;4.23;;;2.17;;
11984;SDS011;6052;53.246;10.368;2024-01-15T06:05:56;3.80;;;1.50;;
11984;SDS011;6052;53.246;10.368;2024-01-15T06:08:28;4.17;;;1.70;;
11984;SDS011;6052;53.246;10.368;2024-01-15T06:10:58;3.93;;;1.70;;
11984;SDS011;6052;53.246;10.368;2024-01-15T06:13:27;10.10;;;2.03;;
11984;SDS011;6052;53.246;10.368;2024-01-15T06:15:57;8.20;;;2.20;;
11984;SDS011;6052;53.246;10.368;2024-01-15T06:18:27;8.50;;;2.20;;
11984;SDS011;6052;53.246;10.368;2024-01-15T06:20:56;11.13;;;2.27;;
11984;SDS011;6052;53.246;10.368;2024-01-15T06:23:28;12.93;;;3.13;;
11984;SDS011;6052;53.246;10.368;2024-01-15T06:25:58;6.07;;;1.97;;
11984;SDS011;6052;53.246;10.368;2024-01-15T06:28:30;4.77;;;2.00;;
11984;SDS011;6052;53.246;10.368;2024-01-15T06:30:59;6.43;;;2.63;;
11984;SDS011;6052;53.246;10.368;2024-01-15T06:33:29;6.07;;;2.10;;
11984;SDS011;6052;53.246;10.368;2024-01-15T06:35:59;5.57;;;2.07;;
11984;SDS011;6052;53.246;10.368;2024-01-15T06:38:31;3.83;;;1.70;;
11984;SDS011;6052;53.246;10.368;2024-01-15T06:41:01;8.77;;;1.60;;
11984;SDS011;6052;53.246;10.368;2024-01-15T06:43:30;8.57;;;2.00;;
11984;SDS011;6052;53.246;10.368;2024-01-15T06:46:00;8.23;;;2.00;;
11984;SDS011;6052;53.246;10.368;2024-01-15T06:48:33;6.30;;;2.20;;
11984;SDS011;6052;53.246;10.368;2024-01-15T06:51:04;4.93;;;1.70;;
11984;SDS011;6052;53.246;10.368;2024-01-15T06:53:36;5.23;;;1.90;;
11984;SDS011;6052;53.246;10.368;2024-01-15T06:56:06;4.57;;;1.40;;
11984;SDS011;6052;53.246;10.368;2024-01-15T06:58:35;4.23;;;1.30;;
11984;SDS011;6052;53.246;10.368;2024-01-15T07:01:06;4.97;;;1.43;;
11984;SDS011;6052;53.246;10.368;2024-01-15T07:03:37;7.13;;;1.47;;
11984;SDS011;6052;53.246;10.368;2024-01-15T07:06:06;5.20;;;1.30;;
11984;SDS011;6052;53.246;10.368;2024-01-15T07:08:39;4.93;;;1.93;;
11984;SDS011;6052;53.246;10.368;2024-01-15T07:11:09;2.53;;;1.33;;
11984;SDS011;6052;53.246;10.368;2024-01-15T07:13:38;3.93;;;1.80;;
11984;SDS011;6052;53.246;10.368;2024-01-15T07:16:08;4.33;;;1.50;;
11984;SDS011;6052;53.246;10.368;2024-01-15T07:18:37;1.60;;;1.27;;
11984;SDS011;6052;53.246;10.368;2024-01-15T07:21:07;5.43;;;1.63;;
11984;SDS011;6052;53.246;10.368;2024-01-15T07:23:39;5.67;;;1.40;;
11984;SDS011;6052;53.246;10.368;2024-01-15T07:26:09;7.27;;;1.37;;
11984;SDS011;6052;53.246;10.368;2024-01-15T07:28:38;6.90;;;1.53;;
11984;SDS011;6052;53.246;10.368;2024-01-15T07:31:08;3.70;;;1.10;;
11984;SDS011;6052;53.246;10.368;2024-01-15T07:33:38;1.47;;;1.07;;
11984;SDS011;6052;53.246;10.368;2024-01-15T07:36:08;5.60;;;1.40;;
11984;SDS011;6052;53.246;10.368;2024-01-15T07:38:40;4.17;;;0.93;;
11984;SDS011;6052;53.246;10.368;2024-01-15T07:41:10;3.67;;;1.57;;
11984;SDS011;6052;53.246;10.368;2024-01-15T07:43:39;4.30;;;1.60;;
11984;SDS011;6052;53.246;10.368;2024-01-15T07:46:09;2.93;;;1.10;;
11984;SDS011;6052;53.246;10.368;2024-01-15T07:48:39;3.23;;;1.50;;
11984;SDS011;6052;53.246;10.368;2024-01-15T07:51:08;4.20;;;1.30;;
11984;SDS011;6052;53.246;10.368;2024-01-15T07:53:40;2.43;;;1.17;;
11984;SDS011;6052;53.246;10.368;2024-01-15T07:56:10;3.33;;;1.10;;
11984;SDS011;6052;53.246;10.368;2024-01-15T07:58:40;2.03;;;1.60;;
11984;SDS011;6052;53.246;10.368;2024-01-15T08:01:09;2.67;;;1.40;;
11984;SDS011;6052;53.246;10.368;2024-01-15T08:03:39;5.07;;;1.40;;
11984;SDS011;6052;53.246;10.368;2024-01-15T08:06:09;3.83;;;1.10;;
11984;SDS011;6052;53.246;10.368;2024-01-15T08:08:41;2.03;;;1.10;;
11984;SDS011;6052;53.246;10.368;2024-01-15T08:11:11;3.67;;;1.40;;
11984;SDS011;6052;53.246;10.368;2024-01-15T08:13:41;2.37;;;1.00;;
11984;SDS011;6052;53.246;10.368;2024-01-15T08:16:10;1.90;;;1.00;;
11984;SDS011;6052;53.246;10.368;2024-01-15T08:18:41;4.47;;;0.90;;
11984;SDS011;6052;53.246;10.368;2024-01-15T08:21:11;2.23;;;0.73;;
11984;SDS011;6052;53.246;10.368;2024-01-15T08:23:43;2.80;;;1.10;;
11984;SDS011;6052;53.246;10.368;2024-01-15T08:26:12;3.43;;;0.70;;
11984;SDS011;6052;53.246;10.368;2024-01-15T08:28:42;3.27;;;0.73;;
11984;SDS011;6052;53.246;10.368;2024-01-15T08:31:12;1.30;;;0.77;;
11984;SDS011;6052;53.246;10.368;2024-01-15T08:33:42;4.27;;;0.90;;
11984;SDS011;6052;53.246;10.368;2024-01-15T08:36:12;1.30;;;0.70;;
11984;SDS011;6052;53.246;10.368;2024-01-15T08:38:45;3.03;;;0.40;;
11984;SDS011;6052;53.246;10.368;2024-01-15T08:41:14;3.33;;;0.60;;
11984;SDS011;6052;53.246;10.368;2024-01-15T08:43:44;1.53;;;0.40;;
11984;SDS011;6052;53.246;10.368;2024-01-15T08:46:14;0.57;;;0.27;;
11984;SDS011;6052;53.246;10.368;2024-01-15T08:48:43;1.00;;;0.70;;
11984;SDS011;6052;53.246;10.368;2024-01-15T08:51:13;1.23;;;0.60;;
11984;SDS011;6052;53.246;10.368;2024-01-15T08:53:45;0.90;;;0.70;;
11984;SDS011;6052;53.246;10.368;2024-01-15T08:56:15;0.77;;;0.50;;
11984;SDS011;6052;53.246;10.368;2024-01-15T08:58:44;0.50;;;0.47;;
11984;SDS011;6052;53.246;10.368;2024-01-15T09:01:15;0.50;;;0.50;;
11984;SDS011;6052;53.246;10.368;2024-01-15T09:03:45;0.60;;;0.60;;
11984;SDS011;6052;53.246;10.368;2024-01-15T09:06:15;1.27;;;0.50;;
11984;SDS011;6052;53.246;10.368;2024-01-15T09:08:48;0.80;;;0.80;;
11984;SDS011;6052;53.246;10.368;2024-01-15T09:11:17;0.60;;;0.60;;
11984;SDS011;6052;53.246;10.368;2024-01-15T09:13:47;1.03;;;0.90;;
11984;SDS011;6052;53.246;10.368;2024-01-15T09:16:18;0.60;;;0.60;;
11984;SDS011;6052;53.246;10.368;2024-01-15T09:18:47;2.83;;;0.57;;
11984;SDS011;6052;53.246;10.368;2024-01-15T09:21:17;0.97;;;0.70;;
11984;SDS011;6052;53.246;10.368;2024-01-15T09:23:49;1.00;;;0.80;;
11984;SDS011;6052;53.246;10.368;2024-01-15T09:26:19;0.60;;;0.60;;
11984;SDS011;6052;53.246;10.368;2024-01-15T09:28:48;1.83;;;0.80;;
11984;SDS011;6052;53.246;10.368;2024-01-15T09:31:18;0.67;;;0.67;;
11984;SDS011;6052;53.246;10.368;2024-01-15T09:33:49;0.80;;;0.60;;
11984;SDS011;6052;53.246;10.368;2024-01-15T09:36:22;1.40;;;0.60;;
11984;SDS011;6052;53.246;10.368;2024-01-15T09:38:54;0.50;;;0.50;;
11984;SDS011;6052;53.246;10.368;2024-01-15T09:41:24;0.60;;;0.60;;
11984;SDS011;6052;53.246;10.368;2024-01-15T09:43:54;0.30;;;0.30;;
11984;SDS011;6052;53.246;10.368;2024-01-15T09:46:24;0.50;;;0.50;;
11984;SDS011;6052;53.246;10.368;2024-01-15T09:48:53;1.97;;;1.00;;
11984;SDS011;6052;53.246;10.368;2024-01-15T09:51:23;1.03;;;0.43;;
11984;SDS011;6052;53.246;10.368;2024-01-15T09:53:56;0.43;;;0.43;;
11984;SDS011;6052;53.246;10.368;2024-01-15T09:56:27;0.77;;;0.30;;
11984;SDS011;6052;53.246;10.368;2024-01-15T09:58:57;1.00;;;0.53;;
11984;SDS011;6052;53.246;10.368;2024-01-15T10:01:26;1.63;;;0.63;;
11984;SDS011;6052;53.246;10.368;2024-01-15T10:03:57;1.70;;;0.80;;
11984;SDS011;6052;53.246;10.368;2024-01-15T10:06:27;1.27;;;0.60;;
11984;SDS011;6052;53.246;10.368;2024-01-15T10:09:00;0.67;;;0.60;;
11984;SDS011;6052;53.246;10.368;2024-01-15T10:11:31;3.10;;;0.57;;
11984;SDS011;6052;53.246;10.368;2024-01-15T10:14:01;3.87;;;1.17;;
11984;SDS011;6052;53.246;10.368;2024-01-15T10:16:30;1.07;;;0.80;;
11984;SDS011;6052;53.246;10.368;2024-01-15T10:19:00;4.00;;;1.43;;
11984;SDS011;6052;53.246;10.368;2024-01-15T10:21:31;3.87;;;1.43;;
11984;SDS011;6052;53.246;10.368;2024-01-15T10:24:04;0.60;;;0.60;;
11984;SDS011;6052;53.246;10.368;2024-01-15T10:26:34;2.40;;;1.10;;
11984;SDS011;6052;53.246;10.368;2024-01-15T10:29:03;1.93;;;1.10;;
11984;SDS011;6052;53.246;10.368;2024-01-15T10:31:33;2.73;;;1.40;;
11984;SDS011;6052;53.246;10.368;2024-01-15T10:34:09;2.10;;;1.37;;
11984;SDS011;6052;53.246;10.368;2024-01-15T10:36:43;4.60;;;1.57;;
11984;SDS011;6052;53.246;10.368;2024-01-15T10:39:24;1.90;;;1.30;;
11984;SDS011;6052;53.246;10.368;2024-01-15T10:41:54;3.80;;;1.40;;
11984;SDS011;6052;53.246;10.368;2024-01-15T10:44:23;1.30;;;1.20;;
11984;SDS011;6052;53.246;10.368;2024-01-15T10:46:53;2.53;;;1.30;;
11984;SDS011;6052;53.246;10.368;2024-01-15T10:49:24;3.73;;;1.60;;
11984;SDS011;6052;53.246;10.368;2024-01-15T10:51:59;1.50;;;1.40;;
11984;SDS011;6052;53.246;10.368;2024-01-15T10:54:32;2.70;;;1.60;;
11984;SDS011;6052;53.246;10.368;2024-01-15T10:57:04;2.27;;;1.30;;
11984;SDS011;6052;53.246;10.368;2024-01-15T10:59:35;3.10;;;1.50;;
11984;SDS011;6052;53.246;10.368;2024-01-15T11:02:05;3.47;;;1.80;;
11984;SDS011;6052;53.246;10.368;2024-01-15T11:04:36;2.67;;;1.60;;
11984;SDS011;6052;53.246;10.368;2024-01-15T11:07:06;3.07;;;1.70;;
11984;SDS011;6052;53.246;10.368;2024-01-15T11:09:40;2.60;;;1.70;;
11984;SDS011;6052;53.246;10.368;2024-01-15T11:12:11;3.83;;;1.53;;
11984;SDS011;6052;53.246;10.368;2024-01-15T11:14:45;2.00;;;1.40;;
11984;SDS011;6052;53.246;10.368;2024-01-15T11:17:16;2.00;;;1.60;;
11984;SDS011;6052;53.246;10.368;2024-01-15T11:19:47;1.57;;;1.30;;
11984;SDS011;6052;53.246;10.368;2024-01-15T11:25:20;2.30;;;1.43;;
11984;SDS011;6052;53.246;10.368;2024-01-15T11:27:50;2.17;;;1.60;;
11984;SDS011;6052;53.246;10.368;2024-01-15T11:30:24;2.07;;;1.60;;
11984;SDS011;6052;53.246;10.368;2024-01-15T11:32:54;2.33;;;1.63;;
11984;SDS011;6052;53.246;10.368;2024-01-15T11:35:24;1.90;;;1.70;;
11984;SDS011;6052;53.246;10.368;2024-01-15T11:41:15;2.87;;;1.97;;
11984;SDS011;6052;53.246;10.368;2024-01-15T11:43:45;2.63;;;1.73;;
11984;SDS011;6052;53.246;10.368;2024-01-15T11:46:14;3.40;;;2.27;;
11984;SDS011;6052;53.246;10.368;2024-01-15T11:48:47;4.23;;;2.10;;
11984;SDS011;6052;53.246;10.368;2024-01-15T11:51:28;2.07;;;1.80;;
11984;SDS011;6052;53.246;10.368;2024-01-15T11:53:55;4.20;;;2.13;;
11984;SDS011;6052;53.246;10.368;2024-01-15T11:56:32;2.17;;;1.80;;
11984;SDS011;6052;53.246;10.368;2024-01-15T11:59:02;2.97;;;1.67;;
11984;SDS011;6052;53.246;10.368;2024-01-15T12:01:32;2.33;;;1.80;;
11984;SDS011;6052;53.246;10.368;2024-01-15T12:04:03;4.13;;;2.33;;
11984;SDS011;6052;53.246;10.368;2024-01-15T12:06:33;3.30;;;1.70;;
11984;SDS011;6052;53.246;10.368;2024-01-15T12:09:06;1.97;;;1.50;;
11984;SDS011;6052;53.246;10.368;2024-01-15T12:11:38;5.90;;;1.60;;
11984;SDS011;6052;53.246;10.368;2024-01-15T12:14:16;2.33;;;1.03;;
11984;SDS011;6052;53.246;10.368;2024-01-15T12:16:45;2.23;;;1.20;;
11984;SDS011;6052;53.246;10.368;2024-01-15T12:19:15;1.87;;;1.20;;
11984;SDS011;6052;53.246;10.368;2024-01-15T12:21:45;1.70;;;1.17;;
11984;SDS011;6052;53.246;10.368;2024-01-15T12:24:16;1.03;;;0.87;;
11984;SDS011;6052;53.246;10.368;2024-01-15T12:26:48;3.87;;;1.00;;
11984;SDS011;6052;53.246;10.368;2024-01-15T12:29:18;2.23;;;1.30;;
11984;SDS011;6052;53.246;10.368;2024-01-15T12:31:48;0.87;;;0.73;;
11984;SDS011;6052;53.246;10.368;2024-01-15T12:34:18;1.00;;;0.90;;
11984;SDS011;6052;53.246;10.368;2024-01-15T12:36:48;2.93;;;0.80;;
11984;SDS011;6052;53.246;10.368;2024-01-15T12:39:17;1.57;;;1.10;;
11984;SDS011;6052;53.246;10.368;2024-01-15T12:41:49;1.10;;;1.00;;
11984;SDS011;6052;53.246;10.368;2024-01-15T12:44:19;1.27;;;1.00;;
11984;SDS011;6052;53.246;10.368;2024-01-15T12:46:49;1.90;;;0.80;;
11984;SDS011;6052;53.246;10.368;2024-01-15T12:49:18;0.90;;;0.90;;
11984;SDS011;6052;53.246;10.368;2024-01-15T12:51:51;1.43;;;0.93;;
11984;SDS011;6052;53.246;10.368;2024-01-15T12:54:22;1.00;;;0.90;;
11984;SDS011;6052;53.246;10.368;2024-01-15T12:56:55;0.97;;;0.97;;
11984;SDS011;6052;53.246;10.368;2024-01-15T12:59:24;0.90;;;0.90;;
11984;SDS011;6052;53.246;10.368;2024-01-15T13:01:54;0.70;;;0.70;;
11984;SDS011;6052;53.246;10.368;2024-01-15T13:04:24;0.90;;;0.83;;
11984;SDS011;6052;53.246;10.368;2024-01-15T13:06:54;0.77;;;0.77;;
11984;SDS011;6052;53.246;10.368;2024-01-15T13:09:24;0.87;;;0.70;;
11984;SDS011;6052;53.246;10.368;2024-01-15T13:11:56;1.37;;;0.77;;
11984;SDS011;6052;53.246;10.368;2024-01-15T13:14:25;0.60;;;0.60;;
11984;SDS011;6052;53.246;10.368;2024-01-15T13:16:55;0.60;;;0.60;;
11984;SDS011;6052;53.246;10.368;2024-01-15T13:19:25;0.67;;;0.63;;
11984;SDS011;6052;53.246;10.368;2024-01-15T13:21:55;1.10;;;0.60;;
11984;SDS011;6052;53.246;10.368;2024-01-15T13:24:26;0.73;;;0.60;;
11984;SDS011;6052;53.246;10.368;2024-01-15T13:26:58;1.30;;;0.60;;
11984;SDS011;6052;53.246;10.368;2024-01-15T13:29:28;0.70;;;0.70;;
11984;SDS011;6052;53.246;10.368;2024-01-15T13:31:58;2.00;;;0.63;;
11984;SDS011;6052;53.246;10.368;2024-01-15T13:34:27;1.10;;;0.80;;
11984;SDS011;6052;53.246;10.368;2024-01-15T13:36:57;0.73;;;0.60;;
11984;SDS011;6052;53.246;10.368;2024-01-15T13:39:27;2.27;;;1.10;;
11984;SDS011;6052;53.246;10.368;2024-01-15T13:42:02;2.83;;;1.30;;
11984;SDS011;6052;53.246;10.368;2024-01-15T13:44:32;1.00;;;0.90;;
11984;SDS011;6052;53.246;10.368;2024-01-15T13:47:02;0.73;;;0.73;;
11984;SDS011;6052;53.246;10.368;2024-01-15T13:49:32;2.20;;;0.90;;
11984;SDS011;6052;53.246;10.368;2024-01-15T13:52:03;1.40;;;0.80;;
11984;SDS011;6052;53.246;10.368;2024-01-15T13:54:33;0.83;;;0.80;;
11984;SDS011;6052;53.246;10.368;2024-01-15T13:57:17;0.50;;;0.50;;
11984;SDS011;6052;53.246;10.368;2024-01-15T13:59:49;0.97;;;0.80;;
11984;SDS011;6052;53.246;10.368;2024-01-15T14:02:19;1.77;;;1.10;;
11984;SDS011;6052;53.246;10.368;2024-01-15T14:04:51;1.10;;;0.80;;
11984;SDS011;6052;53.246;10.368;2024-01-15T14:07:21;1.03;;;0.93;;
11984;SDS011;6052;53.246;10.368;2024-01-15T14:09:50;1.37;;;1.10;;
11984;SDS011;6052;53.246;10.368;2024-01-15T14:12:22;1.13;;;0.90;;
11984;SDS011;6052;53.246;10.368;2024-01-15T14:14:53;0.60;;;0.60;;
11984;SDS011;6052;53.246;10.368;2024-01-15T14:17:22;0.90;;;0.90;;
11984;SDS011;6052;53.246;10.368;2024-01-15T14:19:52;0.60;;;0.60;;
11984;SDS011;6052;53.246;10.368;2024-01-15T14:22:22;1.30;;;0.70;;
11984;SDS011;6052;53.246;10.368;2024-01-15T14:24:52;1.10;;;0.73;;
11984;SDS011;6052;53.246;10.368;2024-01-15T14:27:24;0.77;;;0.77;;
11984;SDS011;6052;53.246;10.368;2024-01-15T14:29:54;0.70;;;0.70;;
11984;SDS011;6052;53.246;10.368;2024-01-15T14:32:24;0.70;;;0.70;;
11984;SDS011;6052;53.246;10.368;2024-01-15T14:34:53;1.63;;;0.83;;
11984;SDS011;6052;53.246;10.368;2024-01-15T14:37:23;1.40;;;1.00;;
11984;SDS011;6052;53.246;10.368;2024-01-15T14:39:53;2.03;;;1.33;;
11984;SDS011;6052;53.246;10.368;2024-01-15T14:42:25;1.57;;;1.23;;
11984;SDS011;6052;53.246;10.368;2024-01-15T14:44:55;1.70;;;1.33;;
11984;SDS011;6052;53.246;10.368;2024-01-15T14:47:25;2.07;;;0.93;;
11984;SDS011;6052;53.246;10.368;2024-01-15T14:49:54;1.27;;;0.90;;
11984;SDS011;6052;53.246;10.368;2024-01-15T14:52:25;1.20;;;1.00;;
11984;SDS011;6052;53.246;10.368;2024-01-15T14:54:55;1.13;;;0.80;;
11984;SDS011;6052;53.246;10.368;2024-01-15T14:57:27;1.20;;;0.80;;
11984;SDS011;6052;53.246;10.368;2024-01-15T14:59:57;1.07;;;0.97;;
11984;SDS011;6052;53.246;10.368;2024-01-15T15:02:26;1.10;;;0.90;;
11984;SDS011;6052;53.246;10.368;2024-01-15T15:04:58;1.67;;;1.00;;
11984;SDS011;6052;53.246;10.368;2024-01-15T15:07:28;1.73;;;1.23;;
11984;SDS011;6052;53.246;10.368;2024-01-15T15:09:58;1.07;;;0.97;;
11984;SDS011;6052;53.246;10.368;2024-01-15T15:12:30;1.00;;;0.73;;